الصفحة الرئيسية
METAR-TAF:

METAR-TAF

مطار :

هونيارا, جوادالكانال, جزر سولومون

دائرة عرض: 09-25S, خط طول: 160-03E, ارتفاع: 8 متر

مراقبة الطقس الحالي

تاريخ ووقت الإصدار 11 دقيقة قبل الساعة 02:00UTC
ريح 10 عقدة من الشرق
درجة الحرارة 32°درجة مئوية
الرطوبة 67%
ضغط 1009 hPa
الرؤية 10 كم أو أكثر
غيوم قليلة على ارتفاع 2000 قدم
غيوم قليلة على ارتفاع 2100 قدم, مزنة ركامية.
غيوم مفككة على ارتفاع 30000 قدم

METAR: AGGH 190200Z 09010KT 9999 FEW020 FEW021CB BKN300 32/25 Q1009

زمن: 13:11 (02:11 UTC)

توقعات

تاريخ ووقت الإصدار 3ساعات و 1 دقيقة قبل الساعة 23:10UTC
التوقعات صالحة من19 الساعة 00 UTC إلى 19 الساعة 24 UTC
ريح 10 عقدة من الشرق/الشمال الشرقي
الرؤية 10 كم أو أكثر
غيوم متفرقة على ارتفاع 2000 قدم
غيوم متفرقة على ارتفاع 2800 قدم
نظرية الاحتمالات 40%
بين IN و TE UTC
الرؤية: 1011 متر
غيوم متفرقة على ارتفاع 1800 قدم
غيوم قليلة على ارتفاع 1900 قدم, مزنة ركامية.
عاصفة رعدية, (خفيف

TAF: AGGH 182310Z 1900/1924 07010KT 9999 SCT020 SCT028 PROB40 INTER 1904/1908 -TS 9999 SCT018 FEW019CB T 30 31 29 27 Q 1011 1009 1009 1011

أرصاد الطقس والتوقعات من أكثر من 4000 مطار (تقارير الطقس للمطار METAR والتنبؤ بالطقس بالمطارTAF).

المحطات المتاحة هي النقط الصفراء والحمراء على الخريطة.

حرك المؤشر فوق النقطة لمعرفة اسم المحطة.

ثم انقر لمعرفة أرصاد وتوقعات الطقس.

لتغيير الخارطة: اضغط على الأزرار الخضراء مع رمز الصليب الأسود للتكبير. على الزر الأخضر مع شرطة للتصغير، أو على الأسهم الخضراء للخرائط المجاورة.


METAR-TAF: